createdAt,value
2018-01-25T00:01:20.506Z,12.80
2018-01-25T00:03:48.837Z,12.80
2018-01-25T00:06:18.137Z,12.70
2018-01-25T00:08:46.996Z,12.70
2018-01-25T00:11:15.391Z,12.70
2018-01-25T00:13:43.849Z,12.60
2018-01-25T00:16:12.267Z,12.50
2018-01-25T00:18:40.766Z,12.40
2018-01-25T00:21:09.350Z,12.40
2018-01-25T00:23:37.713Z,12.30
2018-01-25T00:26:07.141Z,12.10
2018-01-25T00:28:35.500Z,12.10
2018-01-25T00:31:04.012Z,12.10
2018-01-25T00:33:32.376Z,12.00
2018-01-25T00:36:00.717Z,11.90
2018-01-25T00:38:30.137Z,10.70
2018-01-25T00:40:58.303Z,10.70
2018-01-25T00:43:27.441Z,10.20
2018-01-25T00:45:55.794Z,10.20
2018-01-25T00:48:24.168Z,10.20
2018-01-25T00:50:52.548Z,10.10
2018-01-25T00:53:20.906Z,9.90
2018-01-25T00:55:50.032Z,9.90
2018-01-25T00:58:18.616Z,9.90
2018-01-25T01:00:46.989Z,9.80
2018-01-25T01:03:15.628Z,9.90
2018-01-25T01:05:44.772Z,9.80
2018-01-25T01:08:13.132Z,9.80
2018-01-25T01:10:41.518Z,9.80
2018-01-25T01:13:09.964Z,9.80
2018-01-25T01:15:39.106Z,9.60
2018-01-25T01:18:07.482Z,9.60
2018-01-25T01:20:35.838Z,9.50
2018-01-25T01:23:04.213Z,9.50
2018-01-25T01:25:32.682Z,9.50
2018-01-25T01:28:01.845Z,9.60
2018-01-25T01:30:30.355Z,9.50
2018-01-25T01:32:59.469Z,9.50
2018-01-25T01:35:27.812Z,9.50
2018-01-25T01:37:56.898Z,9.40
2018-01-25T01:40:25.244Z,9.30
2018-01-25T01:42:53.598Z,9.40
2018-01-25T01:45:21.987Z,9.30
2018-01-25T01:47:50.681Z,9.40
2018-01-25T01:50:19.051Z,9.40
2018-01-25T01:52:47.415Z,9.20
2018-01-25T01:55:15.762Z,9.20
2018-01-25T01:57:44.190Z,9.20
2018-01-25T02:00:13.607Z,9.30
2018-01-25T02:02:42.282Z,9.20
2018-01-25T02:05:10.669Z,9.20
2018-01-25T02:07:39.033Z,9.20
2018-01-25T02:10:07.426Z,9.20
2018-01-25T02:12:36.110Z,9.20
2018-01-25T02:15:05.293Z,9.20
2018-01-25T02:17:33.674Z,9.30
2018-01-25T02:20:02.083Z,9.30
2018-01-25T02:22:30.448Z,9.30
2018-01-25T02:24:58.859Z,9.40
2018-01-25T02:27:27.388Z,9.40
2018-01-25T02:29:55.741Z,9.40
2018-01-25T02:32:24.867Z,9.20
2018-01-25T02:34:53.205Z,9.20
2018-01-25T02:37:22.351Z,9.00
2018-01-25T02:39:50.712Z,9.00
2018-01-25T02:42:19.102Z,9.00
2018-01-25T02:44:47.522Z,8.90
2018-01-25T02:47:17.486Z,8.70
2018-01-25T02:49:46.165Z,8.70
2018-01-25T02:52:14.682Z,8.70
2018-01-25T02:54:43.062Z,8.70
2018-01-25T02:57:11.562Z,8.70
2018-01-25T02:59:39.926Z,8.60
2018-01-25T03:02:08.286Z,8.60
2018-01-25T03:04:36.671Z,8.60
2018-01-25T03:07:05.865Z,8.60
2018-01-25T03:09:34.240Z,8.60
2018-01-25T03:12:02.639Z,8.70
2018-01-25T03:14:30.986Z,8.60
2018-01-25T03:16:59.481Z,8.60
2018-01-25T03:19:27.837Z,8.50
2018-01-25T03:21:56.207Z,8.50
2018-01-25T03:24:24.995Z,8.50
2018-01-25T03:26:53.348Z,8.50
2018-01-25T03:29:22.603Z,8.50
2018-01-25T03:31:50.965Z,8.50
2018-01-25T03:34:19.326Z,8.50
2018-01-25T03:36:47.722Z,8.50
2018-01-25T03:39:16.066Z,8.50
2018-01-25T03:41:44.430Z,8.40
2018-01-25T03:44:13.565Z,8.40
2018-01-25T03:46:41.740Z,8.40
2018-01-25T03:49:10.116Z,8.50
2018-01-25T03:51:38.473Z,8.50
2018-01-25T03:54:06.824Z,8.50
2018-01-25T03:56:35.974Z,8.40
2018-01-25T03:59:04.455Z,8.40
2018-01-25T04:01:33.475Z,8.50
2018-01-25T04:04:01.841Z,8.50
2018-01-25T04:06:30.190Z,8.60
2018-01-25T04:08:58.564Z,8.60
2018-01-25T04:11:27.594Z,8.50
2018-01-25T04:13:56.017Z,8.60
2018-01-25T04:16:25.504Z,8.60
2018-01-25T04:18:54.621Z,8.60
2018-01-25T04:21:22.962Z,8.60
2018-01-25T04:23:51.499Z,8.60
2018-01-25T04:26:19.946Z,8.60
2018-01-25T04:28:49.214Z,8.50
2018-01-25T04:31:17.737Z,8.50
2018-01-25T04:33:46.857Z,8.50
2018-01-25T04:36:15.233Z,8.50
2018-01-25T04:38:43.725Z,8.40
2018-01-25T04:41:11.750Z,8.50
2018-01-25T04:43:40.773Z,8.60
2018-01-25T04:46:09.109Z,8.50
2018-01-25T04:48:38.247Z,8.50
2018-01-25T04:51:07.095Z,8.50
2018-01-25T04:53:36.241Z,8.50
2018-01-25T04:56:04.787Z,8.50
2018-01-25T04:58:33.166Z,8.50
2018-01-25T05:01:01.520Z,8.40
2018-01-25T05:03:33.464Z,8.50
2018-01-25T05:06:01.820Z,8.50
2018-01-25T05:08:30.538Z,8.40
2018-01-25T05:10:58.908Z,8.40
2018-01-25T05:13:28.023Z,8.40
2018-01-25T05:15:57.323Z,8.50
2018-01-25T05:18:26.431Z,8.60
2018-01-25T05:20:55.364Z,8.60
2018-01-25T05:23:23.620Z,8.60
2018-01-25T05:25:52.000Z,8.60
2018-01-25T05:28:20.561Z,8.60
2018-01-25T05:30:49.690Z,8.60
2018-01-25T05:33:17.860Z,8.60
2018-01-25T05:35:46.055Z,8.70
2018-01-25T05:38:14.504Z,8.60
2018-01-25T05:40:43.012Z,8.70
2018-01-25T05:43:11.375Z,8.70
2018-01-25T05:45:39.741Z,8.70
2018-01-25T05:48:08.130Z,8.70
2018-01-25T05:50:36.648Z,8.70
2018-01-25T05:53:05.025Z,8.70
2018-01-25T05:55:33.539Z,8.70
2018-01-25T05:58:01.916Z,8.70
2018-01-25T06:00:30.478Z,8.70
2018-01-25T06:02:59.651Z,8.60
2018-01-25T06:05:28.017Z,8.60
2018-01-25T06:07:56.422Z,8.60
2018-01-25T06:10:25.384Z,8.50
2018-01-25T06:12:53.822Z,8.50
2018-01-25T06:15:22.331Z,8.50
2018-01-25T06:17:50.843Z,8.50
2018-01-25T06:20:19.461Z,8.60
2018-01-25T06:22:47.839Z,8.60
2018-01-25T06:25:17.006Z,8.60
2018-01-25T06:27:45.493Z,8.60
2018-01-25T06:30:14.037Z,8.60
2018-01-25T06:32:42.763Z,8.50
2018-01-25T06:35:11.167Z,8.50
2018-01-25T06:37:39.808Z,8.50
2018-01-25T06:40:08.182Z,8.50
2018-01-25T06:42:37.400Z,8.50
2018-01-25T06:45:06.422Z,8.40
2018-01-25T06:47:35.182Z,8.40
2018-01-25T06:50:03.650Z,8.40
2018-01-25T06:52:32.048Z,8.50
2018-01-25T06:55:01.345Z,8.50
2018-01-25T06:57:29.803Z,8.40
2018-01-25T06:59:59.061Z,8.50
2018-01-25T07:02:27.504Z,8.50
2018-01-25T07:04:55.871Z,8.60
2018-01-25T07:07:24.506Z,8.60
2018-01-25T07:09:53.458Z,8.50
2018-01-25T07:12:22.675Z,8.60
2018-01-25T07:14:51.782Z,8.60
2018-01-25T07:17:20.140Z,8.60
2018-01-25T07:19:49.530Z,8.60
2018-01-25T07:22:17.935Z,8.60
2018-01-25T07:24:46.284Z,8.60
2018-01-25T07:27:14.871Z,8.50
2018-01-25T07:29:44.271Z,8.50
2018-01-25T07:32:13.426Z,8.50
2018-01-25T07:34:42.000Z,8.50
2018-01-25T07:37:10.523Z,8.50
2018-01-25T07:39:39.129Z,8.50
2018-01-25T07:42:08.251Z,8.60
2018-01-25T07:44:37.249Z,8.60
2018-01-25T07:47:05.638Z,8.70
2018-01-25T07:49:34.124Z,8.70
2018-01-25T07:52:02.538Z,8.80
2018-01-25T07:54:30.774Z,8.80
2018-01-25T07:56:59.157Z,8.80
2018-01-25T07:59:27.626Z,8.90
2018-01-25T08:01:56.000Z,8.90
2018-01-25T08:04:24.484Z,8.90
2018-01-25T08:06:52.867Z,9.00
2018-01-25T08:09:21.155Z,8.90
2018-01-25T08:11:49.728Z,8.90
2018-01-25T08:14:18.284Z,8.80
2018-01-25T08:16:49.607Z,8.90
2018-01-25T08:19:19.446Z,9.00
2018-01-25T08:21:47.871Z,9.00
2018-01-25T08:24:16.720Z,9.00
2018-01-25T08:26:45.205Z,9.00
2018-01-25T08:29:13.614Z,9.00
2018-01-25T08:31:41.773Z,9.10
2018-01-25T08:34:10.337Z,9.10
2018-01-25T08:36:39.030Z,9.20
2018-01-25T08:39:07.391Z,9.10
2018-01-25T08:41:35.801Z,9.20
2018-01-25T08:44:04.309Z,9.20
2018-01-25T08:46:33.467Z,9.30
2018-01-25T08:49:01.949Z,9.30
2018-01-25T08:51:30.330Z,9.30
2018-01-25T08:53:58.927Z,9.40
2018-01-25T08:56:27.285Z,9.40
2018-01-25T08:58:55.666Z,9.40
2018-01-25T09:01:24.057Z,9.40
2018-01-25T09:03:52.462Z,9.40
2018-01-25T09:06:22.528Z,9.40
2018-01-25T09:08:50.878Z,9.50
2018-01-25T09:11:20.118Z,9.50
2018-01-25T09:13:48.736Z,9.40
2018-01-25T09:16:18.814Z,9.40
2018-01-25T09:18:47.456Z,9.40
2018-01-25T09:21:16.758Z,9.50
2018-01-25T09:23:45.970Z,9.40
2018-01-25T09:26:14.342Z,9.40
2018-01-25T09:28:42.770Z,9.50
2018-01-25T09:31:11.171Z,9.50
2018-01-25T09:33:39.580Z,9.50
2018-01-25T09:36:07.953Z,9.60
2018-01-25T09:38:37.382Z,9.60
2018-01-25T09:41:05.721Z,9.60
2018-01-25T09:43:34.887Z,9.60
2018-01-25T09:46:04.095Z,9.70
2018-01-25T09:48:33.358Z,9.70
2018-01-25T09:51:01.770Z,9.70
2018-01-25T09:53:30.170Z,9.70
2018-01-25T09:55:59.313Z,9.90
2018-01-25T09:58:27.680Z,9.80
2018-01-25T10:00:56.071Z,9.90
2018-01-25T10:03:24.604Z,10.00
2018-01-25T10:05:54.038Z,10.00
2018-01-25T10:08:22.484Z,10.00
2018-01-25T10:10:51.626Z,10.20
2018-01-25T10:13:21.028Z,10.20
2018-01-25T10:15:49.391Z,10.20
2018-01-25T10:18:17.741Z,10.20
2018-01-25T10:20:46.863Z,10.30
2018-01-25T10:23:15.236Z,10.30
2018-01-25T10:25:43.574Z,10.30
2018-01-25T10:28:12.891Z,10.30
2018-01-25T10:30:42.023Z,10.30
2018-01-25T10:33:10.374Z,10.30
2018-01-25T10:35:38.734Z,10.40
2018-01-25T10:38:07.627Z,10.40
2018-01-25T10:40:36.750Z,10.50
2018-01-25T10:43:05.129Z,10.50
2018-01-25T10:45:33.515Z,10.50
2018-01-25T10:48:01.866Z,10.50
2018-01-25T10:50:30.330Z,10.50
2018-01-25T10:52:59.466Z,10.50
2018-01-25T10:55:27.809Z,10.50
2018-01-25T10:57:56.941Z,10.60
2018-01-25T11:00:25.149Z,10.50
2018-01-25T11:02:53.501Z,10.50
2018-01-25T11:05:21.886Z,10.50
2018-01-25T11:07:50.251Z,10.60
2018-01-25T11:10:18.631Z,10.70
2018-01-25T11:12:46.992Z,10.70
2018-01-25T11:15:15.458Z,10.80
2018-01-25T11:17:44.577Z,10.90
2018-01-25T11:20:12.918Z,10.90
2018-01-25T11:22:42.094Z,11.00
2018-01-25T11:25:10.634Z,10.90
2018-01-25T11:27:39.295Z,10.90
2018-01-25T11:30:08.404Z,10.90
2018-01-25T11:32:36.756Z,10.80
2018-01-25T11:35:05.737Z,11.10
2018-01-25T11:37:34.883Z,11.20
2018-01-25T11:40:03.249Z,11.10
2018-01-25T11:42:31.878Z,11.20
2018-01-25T11:45:00.470Z,11.20
2018-01-25T11:47:28.906Z,11.10
2018-01-25T11:49:57.086Z,11.10
2018-01-25T11:52:25.462Z,11.10
2018-01-25T11:54:53.949Z,11.10
2018-01-25T11:57:22.318Z,11.10
2018-01-25T11:59:50.700Z,11.20
2018-01-25T12:02:19.259Z,11.20
2018-01-25T12:04:47.614Z,11.20
2018-01-25T12:07:16.027Z,11.30
2018-01-25T12:09:44.374Z,11.30
2018-01-25T12:12:13.483Z,11.40
2018-01-25T12:14:41.888Z,11.40
2018-01-25T12:17:10.241Z,11.40
2018-01-25T12:19:38.688Z,11.40
2018-01-25T12:22:07.150Z,11.40
2018-01-25T12:24:35.499Z,11.50
2018-01-25T12:27:04.022Z,11.50
2018-01-25T12:29:32.529Z,11.50
2018-01-25T12:32:01.689Z,11.60
2018-01-25T12:34:30.049Z,11.50
2018-01-25T12:36:58.535Z,11.50
2018-01-25T12:39:27.703Z,11.50
2018-01-25T12:41:56.226Z,11.50
2018-01-25T12:44:24.237Z,11.50
2018-01-25T12:46:52.415Z,11.50
2018-01-25T12:49:20.759Z,11.50
2018-01-25T12:51:49.181Z,11.50
2018-01-25T12:54:17.519Z,11.50
2018-01-25T12:56:46.655Z,11.40
2018-01-25T12:59:15.237Z,11.40
2018-01-25T13:01:43.672Z,11.50
2018-01-25T13:04:12.138Z,11.50
2018-01-25T13:06:40.559Z,11.50
2018-01-25T13:09:08.932Z,11.50
2018-01-25T13:11:38.263Z,11.30
2018-01-25T13:14:06.777Z,11.30
2018-01-25T13:16:35.212Z,11.30
2018-01-25T13:19:04.035Z,11.40
2018-01-25T13:21:32.444Z,11.30
2018-01-25T13:24:00.806Z,11.30
2018-01-25T13:26:29.479Z,11.30
2018-01-25T13:28:57.854Z,11.30
2018-01-25T13:31:26.274Z,11.30
2018-01-25T13:33:55.809Z,11.30
2018-01-25T13:36:24.307Z,11.30
2018-01-25T13:38:52.814Z,11.40
2018-01-25T13:41:21.248Z,11.30
2018-01-25T13:43:52.774Z,11.30
2018-01-25T13:46:21.889Z,11.30
2018-01-25T13:48:50.244Z,11.20
2018-01-25T13:51:19.471Z,11.40
2018-01-25T13:53:47.806Z,11.40
2018-01-25T13:56:16.944Z,11.40
2018-01-25T13:58:45.322Z,11.40
2018-01-25T14:01:13.714Z,11.40
2018-01-25T14:03:42.560Z,11.30
2018-01-25T14:06:10.943Z,11.30
2018-01-25T14:08:40.202Z,11.30
2018-01-25T14:11:08.558Z,11.20
2018-01-25T14:13:36.955Z,11.30
2018-01-25T14:16:05.314Z,11.30
2018-01-25T14:18:33.693Z,11.40
2018-01-25T14:21:02.063Z,11.40
2018-01-25T14:23:30.585Z,11.50
2018-01-25T14:25:58.940Z,11.40
2018-01-25T14:28:27.322Z,11.40
2018-01-25T14:30:55.686Z,11.40
2018-01-25T14:33:24.157Z,11.40
2018-01-25T14:35:52.529Z,11.40
2018-01-25T14:38:21.089Z,11.40
2018-01-25T14:40:49.460Z,11.40
2018-01-25T14:43:18.583Z,11.40
2018-01-25T14:45:47.021Z,11.30
2018-01-25T14:48:16.205Z,11.30
2018-01-25T14:50:44.592Z,11.30
2018-01-25T14:53:13.273Z,11.30
2018-01-25T14:55:41.630Z,11.30
2018-01-25T14:58:10.127Z,11.40
2018-01-25T15:00:38.466Z,11.40
2018-01-25T15:03:07.443Z,11.40
2018-01-25T15:05:35.828Z,11.40
2018-01-25T15:08:04.176Z,11.40
2018-01-25T15:10:33.297Z,11.40
2018-01-25T15:13:01.679Z,11.30
2018-01-25T15:15:30.123Z,11.30
2018-01-25T15:17:59.281Z,11.30
2018-01-25T15:20:27.654Z,11.30
2018-01-25T15:22:56.014Z,11.30
2018-01-25T15:25:29.957Z,11.30
2018-01-25T15:27:58.322Z,11.20
2018-01-25T15:30:26.808Z,11.10
2018-01-25T15:32:55.167Z,11.00
2018-01-25T15:35:23.522Z,10.90
2018-01-25T15:37:51.894Z,10.90
2018-01-25T15:40:20.241Z,10.90
2018-01-25T15:42:49.382Z,10.90
2018-01-25T15:45:17.742Z,10.90
2018-01-25T15:47:46.385Z,10.90
2018-01-25T15:50:14.719Z,10.80
2018-01-25T15:52:43.100Z,10.80
2018-01-25T15:55:11.458Z,10.80
2018-01-25T15:57:39.815Z,10.70
2018-01-25T16:00:09.475Z,10.50
2018-01-25T16:02:37.823Z,10.50
2018-01-25T16:05:06.216Z,10.50
2018-01-25T16:07:34.572Z,10.50
2018-01-25T16:10:03.542Z,10.20
2018-01-25T16:12:31.962Z,10.20
2018-01-25T16:15:00.413Z,10.00
2018-01-25T16:17:29.544Z,9.80
2018-01-25T16:19:57.961Z,9.80
2018-01-25T16:22:26.470Z,9.80
2018-01-25T16:24:55.658Z,9.60
2018-01-25T16:27:24.806Z,9.60
2018-01-25T16:29:53.166Z,9.60
2018-01-25T16:32:21.757Z,9.60
2018-01-25T16:34:50.111Z,9.60
2018-01-25T16:37:19.260Z,9.50
2018-01-25T16:39:47.645Z,9.50
2018-01-25T16:42:16.813Z,9.50
2018-01-25T16:44:45.476Z,9.50
2018-01-25T16:47:13.874Z,9.50
2018-01-25T16:49:42.790Z,9.40
2018-01-25T16:52:11.276Z,9.40
2018-01-25T16:54:39.786Z,9.30
2018-01-25T16:57:08.917Z,9.20
2018-01-25T16:59:37.302Z,9.20
2018-01-25T17:02:05.831Z,9.20
2018-01-25T17:04:34.194Z,9.30
2018-01-25T17:07:02.586Z,9.30
2018-01-25T17:09:31.735Z,9.40
2018-01-25T17:12:00.309Z,9.40
2018-01-25T17:14:28.696Z,9.40
2018-01-25T17:16:58.003Z,9.50
2018-01-25T17:19:26.354Z,9.40
2018-01-25T17:21:54.823Z,9.50
2018-01-25T17:24:23.176Z,9.40
2018-01-25T17:26:52.298Z,9.40
2018-01-25T17:29:20.664Z,9.50
2018-01-25T17:31:49.801Z,9.50
2018-01-25T17:34:18.301Z,9.50
2018-01-25T17:36:46.692Z,9.50
2018-01-25T17:39:15.155Z,9.50
2018-01-25T17:41:43.661Z,9.40
2018-01-25T17:44:12.094Z,9.40
2018-01-25T17:46:40.576Z,9.50
2018-01-25T17:49:08.959Z,9.40
2018-01-25T17:51:37.427Z,9.40
2018-01-25T17:54:05.871Z,9.30
2018-01-25T17:56:35.089Z,9.20
2018-01-25T17:59:04.061Z,9.10
2018-01-25T18:01:32.451Z,9.00
2018-01-25T18:04:00.827Z,9.00
2018-01-25T18:06:29.947Z,8.70
2018-01-25T18:08:58.296Z,8.70
2018-01-25T18:11:27.424Z,8.70
2018-01-25T18:13:55.786Z,8.60
2018-01-25T18:16:24.175Z,8.60
2018-01-25T18:18:52.527Z,8.60
2018-01-25T18:21:21.646Z,8.70
2018-01-25T18:23:49.683Z,8.70
2018-01-25T18:26:18.811Z,8.60
2018-01-25T18:28:47.152Z,8.50
2018-01-25T18:31:16.603Z,8.50
2018-01-25T18:33:44.786Z,8.50
2018-01-25T18:36:13.145Z,8.50
2018-01-25T18:38:41.522Z,8.60
2018-01-25T18:41:10.865Z,8.60
2018-01-25T18:43:39.322Z,8.60
2018-01-25T18:46:07.682Z,8.50
2018-01-25T18:48:36.013Z,8.40
2018-01-25T18:51:05.131Z,8.50
2018-01-25T18:53:33.474Z,8.40
2018-01-25T18:56:01.822Z,8.50
2018-01-25T18:58:30.217Z,8.50
2018-01-25T19:00:58.562Z,8.50
2018-01-25T19:03:27.128Z,8.50
2018-01-25T19:05:55.645Z,8.50
2018-01-25T19:08:24.039Z,8.50
2018-01-25T19:10:55.521Z,8.50
2018-01-25T19:13:24.653Z,8.50
2018-01-25T19:15:53.141Z,8.50
2018-01-25T19:18:21.582Z,8.50
2018-01-25T19:20:50.070Z,8.40
2018-01-25T19:23:18.489Z,8.30
2018-01-25T19:25:47.112Z,8.30
2018-01-25T19:28:15.577Z,8.20
2018-01-25T19:30:43.928Z,8.20
2018-01-25T19:33:12.430Z,8.20
2018-01-25T19:35:40.806Z,8.30
2018-01-25T19:38:09.177Z,8.20
2018-01-25T19:40:37.702Z,8.20
2018-01-25T19:43:06.174Z,8.30
2018-01-25T19:45:35.302Z,8.30
2018-01-25T19:48:03.478Z,8.20
2018-01-25T19:50:32.021Z,8.30
2018-01-25T19:53:01.172Z,8.40
2018-01-25T19:55:29.507Z,8.40
2018-01-25T19:57:58.716Z,8.50
2018-01-25T20:00:27.071Z,8.50
2018-01-25T20:02:56.193Z,8.50
2018-01-25T20:05:24.771Z,8.50
2018-01-25T20:07:53.187Z,8.60
2018-01-25T20:10:21.951Z,8.60
2018-01-25T20:12:50.837Z,8.70
2018-01-25T20:15:19.524Z,8.70
2018-01-25T20:17:47.966Z,8.70
2018-01-25T20:20:17.174Z,8.70
2018-01-25T20:22:46.307Z,8.70
2018-01-25T20:25:14.682Z,8.70
2018-01-25T20:27:43.079Z,8.70
2018-01-25T20:30:11.439Z,8.60
2018-01-25T20:32:39.837Z,8.60
2018-01-25T20:35:08.188Z,8.70
2018-01-25T20:37:36.528Z,8.60
2018-01-25T20:40:05.660Z,8.70
2018-01-25T20:42:34.034Z,8.70
2018-01-25T20:45:02.391Z,8.70
2018-01-25T20:47:30.764Z,8.70
2018-01-25T20:49:59.454Z,8.70
2018-01-25T20:52:27.852Z,8.70
2018-01-25T20:54:56.361Z,8.70
2018-01-25T20:57:24.705Z,8.70
2018-01-25T20:59:53.186Z,8.80
2018-01-25T21:02:21.550Z,8.80
2018-01-25T21:04:50.002Z,8.80
2018-01-25T21:07:18.369Z,8.70
2018-01-25T21:09:46.717Z,8.70
2018-01-25T21:12:15.102Z,8.60
2018-01-25T21:14:43.743Z,8.70
2018-01-25T21:17:12.864Z,8.70
2018-01-25T21:19:41.246Z,8.70
2018-01-25T21:22:10.167Z,8.70
2018-01-25T21:24:38.905Z,8.60
2018-01-25T21:27:07.794Z,8.60
2018-01-25T21:29:36.148Z,8.70
2018-01-25T21:32:04.548Z,8.70
2018-01-25T21:34:33.668Z,8.70
2018-01-25T21:37:02.027Z,8.70
2018-01-25T21:39:34.097Z,8.80
2018-01-25T21:42:02.511Z,8.80
2018-01-25T21:44:30.859Z,8.90
2018-01-25T21:46:59.217Z,8.90
2018-01-25T21:49:28.435Z,8.80
2018-01-25T21:51:56.794Z,8.80
2018-01-25T21:54:25.239Z,8.80
2018-01-25T21:56:53.849Z,8.80
2018-01-25T21:59:22.377Z,8.80
2018-01-25T22:01:50.830Z,8.80
2018-01-25T22:04:19.182Z,8.70
2018-01-25T22:06:49.207Z,8.60
2018-01-25T22:09:17.634Z,8.60
2018-01-25T22:11:45.997Z,8.70
2018-01-25T22:14:14.405Z,8.70
2018-01-25T22:16:42.859Z,8.70
2018-01-25T22:19:11.287Z,8.60
2018-01-25T22:21:40.622Z,8.60
2018-01-25T22:24:09.061Z,8.60
2018-01-25T22:26:37.673Z,8.60
2018-01-25T22:29:06.817Z,8.60
2018-01-25T22:31:35.311Z,8.60
2018-01-25T22:34:04.257Z,8.60
2018-01-25T22:36:32.892Z,8.60
2018-01-25T22:39:01.317Z,8.60
2018-01-25T22:41:30.015Z,8.70
2018-01-25T22:43:58.418Z,8.60
2018-01-25T22:46:26.770Z,8.60
2018-01-25T22:48:55.146Z,8.60
2018-01-25T22:51:23.498Z,8.70
2018-01-25T22:53:52.631Z,8.70
2018-01-25T22:56:21.169Z,8.70
2018-01-25T22:58:50.297Z,8.70
2018-01-25T23:01:19.031Z,8.70
2018-01-25T23:03:48.281Z,8.70
2018-01-25T23:06:16.634Z,8.70
2018-01-25T23:08:45.014Z,8.70
2018-01-25T23:11:13.854Z,8.70
2018-01-25T23:13:42.199Z,8.70
2018-01-25T23:16:10.559Z,8.70
2018-01-25T23:18:38.916Z,8.70
2018-01-25T23:21:08.085Z,8.70
2018-01-25T23:23:36.625Z,8.70
2018-01-25T23:26:04.973Z,8.70
2018-01-25T23:28:34.134Z,8.70
2018-01-25T23:31:02.494Z,8.70
2018-01-25T23:33:30.926Z,8.70
2018-01-25T23:36:00.182Z,8.80
2018-01-25T23:38:35.702Z,8.80
2018-01-25T23:41:04.049Z,8.80
2018-01-25T23:43:33.156Z,8.70
2018-01-25T23:46:01.556Z,8.70
2018-01-25T23:48:29.972Z,8.70
2018-01-25T23:50:58.347Z,8.70
2018-01-25T23:53:26.706Z,8.70
2018-01-25T23:55:55.094Z,8.70
2018-01-25T23:58:23.444Z,8.60
